KBVY

Beverly Regional Airport

Beverly, Massachusetts, USA
METAR KBVY 181253Z 31022G32KT 10SM BKN095 M04/M13 A2975 RMK AO2 PK WND 32039/1205 SLP072 T10441133
Observed Flight Rules
Dec-18 @ 12:53 UTC (an hour ago) Visual Flight Rules
Wind Visibility Clouds
310° at 22 knots
 Gusting to 32 knots
10 miles
  • Broken at 9,500' AGL
Temperatures Readings
Current -4°C / 25°F
Dewpoint -13°C / 9°F
Humidity 50%
Altimeter 29.75" Hg
Pressure 1007.2 hPa
Elevation 28
METAR KBVY 181253Z 31022G32KT 10SM BKN095 M04/M13 A2975 RMK AO2 PK WND 32039/1205 SLP072 T10441133
Observed Flight Rules
Dec-18 @ 12:53 UTC
(an hour ago)
VFR
Wind Visibility
310° at 22 knots
 Gusting to 32 knots
10 miles
Clouds
  • Broken at 9,500' AGL
Temperature Dewpoint
-4°C / 25°F -13°C / 9°F
Humidity Altimeter Pressure
50% 29.75" Hg 1007.2 hPa